Time;durP1;ratioP1;P1;durP2;ratioP2;P2;SDS_P1;SDS_P2;PMS_P1;PMS_P2;Temp;Humidity;BMP_temperature;BMP_pressure;BME280_temperature;BME280_humidity;BME280_pressure;Samples;Min_cycle;Max_cycle;Signal;HPM_P1;HPM_P2
2022/10/05 00:01:31;;;;;;;4.25;3.95;;;19.40;99.90;;;;;;4147707;28;20263;-75
2022/10/05 00:03:35;;;;;;;5.35;3.97;;;19.30;99.90;;;;;;4147648;28;20221;-75
2022/10/05 00:05:38;;;;;;;4.45;3.88;;;19.30;99.90;;;;;;4147801;28;20618;-75
2022/10/05 00:07:41;;;;;;;4.57;3.97;;;19.40;99.90;;;;;;4147373;28;20232;-75
2022/10/05 00:09:44;;;;;;;4.45;4.05;;;19.30;99.90;;;;;;4147684;28;20290;-75
2022/10/05 00:11:47;;;;;;;5.90;4.18;;;19.30;99.90;;;;;;4146042;28;20685;-75
2022/10/05 00:13:49;;;;;;;4.47;4.07;;;19.40;99.90;;;;;;4146855;28;20733;-72
2022/10/05 00:15:59;;;;;;;4.22;3.67;;;19.30;99.90;;;;;;4147232;28;20244;-72
2022/10/05 00:18:10;;;;;;;4.68;4.15;;;19.30;99.90;;;;;;4147201;28;20267;-72
2022/10/05 00:20:18;;;;;;;4.10;3.70;;;19.30;99.90;;;;;;4147125;28;20212;-72
2022/10/05 00:22:22;;;;;;;5.38;4.15;;;19.30;99.90;;;;;;4146155;28;20213;-72
2022/10/05 00:24:25;;;;;;;4.47;4.07;;;19.30;99.90;;;;;;4145619;28;20256;-72
2022/10/05 00:26:32;;;;;;;3.88;3.53;;;19.30;99.90;;;;;;4146724;28;20279;-72
2022/10/05 00:28:34;;;;;;;3.95;3.55;;;19.30;99.90;;;;;;4145300;28;20265;-72
2022/10/05 00:30:37;;;;;;;4.13;3.72;;;19.30;99.90;;;;;;4145972;28;20225;-72
2022/10/05 00:32:40;;;;;;;4.32;3.85;;;19.40;99.90;;;;;;4143375;28;20268;-72
2022/10/05 00:34:44;;;;;;;3.83;3.53;;;19.30;99.90;;;;;;4145403;28;20315;-72
2022/10/05 00:36:47;;;;;;;4.85;4.03;;;19.40;99.90;;;;;;4145882;28;20600;-71
2022/10/05 00:38:49;;;;;;;4.32;3.90;;;19.30;99.90;;;;;;4145336;28;20724;-71
2022/10/05 00:41:04;;;;;;;4.57;4.18;;;19.30;99.90;;;;;;4146408;28;20221;-72
2022/10/05 00:43:23;;;;;;;4.20;3.80;;;19.30;99.90;;;;;;4144760;28;20229;-72
2022/10/05 00:45:31;;;;;;;4.35;3.78;;;19.30;99.90;;;;;;4144712;28;20225;-70
2022/10/05 00:47:47;;;;;;;3.88;3.58;;;19.30;99.90;;;;;;4148180;28;20228;-71
2022/10/05 00:50:13;;;;;;;4.03;3.63;;;19.30;99.90;;;;;;4145336;28;20259;-71
2022/10/05 00:52:23;;;;;;;4.55;3.92;;;19.30;99.90;;;;;;4145171;28;20245;-71
2022/10/05 00:54:34;;;;;;;4.57;4.10;;;19.30;99.90;;;;;;4145007;28;20670;-71
2022/10/05 00:56:54;;;;;;;4.25;3.63;;;19.30;99.90;;;;;;4145139;28;20987;-71
2022/10/05 00:59:11;;;;;;;4.65;3.70;;;19.30;99.90;;;;;;4145409;28;20217;-71
2022/10/05 01:01:17;;;;;;;4.55;4.15;;;19.30;99.90;;;;;;4145463;28;20229;-70
2022/10/05 01:03:27;;;;;;;4.70;3.88;;;19.30;99.90;;;;;;4145412;28;20279;-71
2022/10/05 01:05:48;;;;;;;5.10;4.10;;;19.30;99.90;;;;;;4144077;28;20217;-71
2022/10/05 01:07:56;;;;;;;4.20;3.80;;;19.30;99.90;;;;;;4145241;28;20273;-71
2022/10/05 01:10:06;;;;;;;4.65;3.75;;;19.30;99.90;;;;;;4144670;28;20221;-71
2022/10/05 01:12:15;;;;;;;4.28;3.88;;;19.30;99.90;;;;;;4143552;28;20220;-71
2022/10/05 01:14:24;;;;;;;4.90;4.40;;;19.30;99.90;;;;;;4145793;28;20275;-71
2022/10/05 01:16:30;;;;;;;4.30;3.90;;;19.30;99.90;;;;;;4147687;28;20260;-71
2022/10/05 01:18:40;;;;;;;4.28;3.88;;;19.30;99.90;;;;;;4145278;28;20510;-71
2022/10/05 01:20:50;;;;;;;4.57;4.10;;;19.30;99.90;;;;;;4145173;28;20228;-71
2022/10/05 01:23:15;;;;;;;4.38;3.97;;;19.30;99.90;;;;;;4144438;28;20217;-71
2022/10/05 01:25:24;;;;;;;4.13;3.72;;;19.30;99.90;;;;;;4145563;28;20218;-71
2022/10/05 01:27:39;;;;;;;4.43;3.50;;;19.30;99.90;;;;;;4145937;28;20675;-71
2022/10/05 01:29:47;;;;;;;4.22;3.83;;;19.30;99.90;;;;;;4133918;28;20267;-70
2022/10/05 01:31:56;;;;;;;4.97;3.88;;;19.30;99.90;;;;;;4146214;28;20696;-71
2022/10/05 01:34:07;;;;;;;4.07;3.67;;;19.30;99.90;;;;;;4146339;28;20208;-70
2022/10/05 01:36:18;;;;;;;4.03;3.63;;;19.30;99.90;;;;;;4140004;28;20213;-71
2022/10/05 01:38:30;;;;;;;4.38;3.80;;;19.30;99.90;;;;;;4145296;28;20241;-70
2022/10/05 01:40:39;;;;;;;5.20;4.25;;;19.30;99.90;;;;;;4151827;28;20274;-71
2022/10/05 01:42:54;;;;;;;5.57;3.65;;;19.30;99.90;;;;;;4150285;28;20263;-70
2022/10/05 01:45:08;;;;;;;4.72;3.92;;;19.30;99.90;;;;;;4146159;28;20221;-74
2022/10/05 01:47:20;;;;;;;6.15;3.85;;;19.30;99.90;;;;;;4146310;28;20213;-74
2022/10/05 01:49:35;;;;;;;4.65;4.25;;;19.30;99.90;;;;;;4141721;28;20251;-74
2022/10/05 01:51:47;;;;;;;4.22;3.60;;;19.30;99.90;;;;;;4141863;28;20283;-73
2022/10/05 01:54:03;;;;;;;5.00;3.67;;;19.30;99.90;;;;;;4145020;28;20721;-73
2022/10/05 01:56:15;;;;;;;4.22;3.83;;;19.20;99.90;;;;;;4136692;28;20217;-74
2022/10/05 01:58:27;;;;;;;4.80;3.50;;;19.30;99.90;;;;;;4138876;28;20292;-73
2022/10/05 02:00:32;;;;;;;4.07;3.50;;;19.30;99.90;;;;;;4137911;28;20244;-74
2022/10/05 02:02:38;;;;;;;4.45;3.97;;;19.20;99.90;;;;;;4143154;28;20288;-73
2022/10/05 02:04:45;;;;;;;4.10;3.70;;;19.30;99.90;;;;;;4139663;28;20224;-73
2022/10/05 02:06:51;;;;;;;3.90;3.55;;;19.20;99.90;;;;;;4137726;28;20229;-74
2022/10/05 02:08:58;;;;;;;4.40;3.45;;;19.20;99.90;;;;;;4141781;28;20213;-74
2022/10/05 02:11:05;;;;;;;4.07;3.67;;;19.20;99.90;;;;;;4144326;28;20573;-74
2022/10/05 02:13:13;;;;;;;4.90;3.58;;;19.20;99.90;;;;;;4145306;28;20229;-74
2022/10/05 02:15:22;;;;;;;5.18;4.10;;;19.20;99.90;;;;;;4145392;28;20325;-73
2022/10/05 02:17:32;;;;;;;3.58;3.28;;;19.20;99.90;;;;;;4143656;28;20283;-73
2022/10/05 02:19:40;;;;;;;4.40;4.00;;;19.30;99.90;;;;;;4144592;28;20272;-74
2022/10/05 02:21:46;;;;;;;5.65;3.97;;;19.20;99.90;;;;;;4141623;28;20213;-74
2022/10/05 02:23:52;;;;;;;5.22;4.30;;;19.20;99.90;;;;;;4143283;28;20267;-73
2022/10/05 02:25:56;;;;;;;4.22;3.83;;;19.20;99.90;;;;;;4142044;28;20217;-74
2022/10/05 02:28:03;;;;;;;4.97;3.72;;;19.20;99.90;;;;;;4143720;28;20213;-74
2022/10/05 02:30:08;;;;;;;4.72;3.97;;;19.20;99.90;;;;;;4144310;28;20212;-74
2022/10/05 02:32:15;;;;;;;4.53;3.40;;;19.30;99.90;;;;;;4144535;28;20221;-74
2022/10/05 02:34:25;;;;;;;4.47;3.63;;;19.20;99.90;;;;;;4143688;28;20288;-73
2022/10/05 02:36:33;;;;;;;4.40;4.00;;;19.20;99.90;;;;;;4143507;28;20667;-74
2022/10/05 02:38:43;;;;;;;5.18;3.95;;;19.20;99.90;;;;;;4143278;28;20302;-73
2022/10/05 02:40:56;;;;;;;4.65;4.13;;;19.20;99.90;;;;;;4142654;28;20220;-74
2022/10/05 02:43:06;;;;;;;4.60;4.00;;;19.20;99.90;;;;;;4143197;28;20271;-73
2022/10/05 02:45:17;;;;;;;5.57;4.05;;;19.20;99.90;;;;;;4131971;28;20222;-73
2022/10/05 02:47:32;;;;;;;3.85;3.55;;;19.20;99.90;;;;;;4143931;28;20279;-72
2022/10/05 02:49:40;;;;;;;3.80;3.42;;;19.20;99.90;;;;;;4144306;28;20217;-71
2022/10/05 02:51:50;;;;;;;4.50;4.10;;;19.20;99.90;;;;;;4142998;28;20212;-71
2022/10/05 02:54:05;;;;;;;4.97;4.22;;;19.20;99.90;;;;;;4144395;28;20271;-71
2022/10/05 02:56:17;;;;;;;4.00;3.60;;;19.20;99.90;;;;;;4142020;28;20644;-71
2022/10/05 02:58:24;;;;;;;4.10;3.70;;;19.20;99.90;;;;;;4144051;28;20303;-71
2022/10/05 03:00:32;;;;;;;4.13;3.75;;;19.20;99.90;;;;;;4144307;28;20217;-71
2022/10/05 03:02:41;;;;;;;4.30;3.90;;;19.20;99.90;;;;;;4140865;28;20283;-71
2022/10/05 03:04:53;;;;;;;4.28;3.88;;;19.20;99.90;;;;;;4132936;28;20276;-71
2022/10/05 03:07:04;;;;;;;5.38;3.88;;;19.20;99.90;;;;;;4138114;28;20288;-71
2022/10/05 03:09:09;;;;;;;4.97;3.80;;;19.20;99.90;;;;;;4142893;28;20267;-71
2022/10/05 03:11:22;;;;;;;3.85;3.55;;;19.20;99.90;;;;;;4143693;28;20282;-71
2022/10/05 03:13:31;;;;;;;4.07;3.67;;;19.20;99.90;;;;;;4144343;28;20229;-71
2022/10/05 03:15:58;;;;;;;4.47;4.07;;;19.20;99.90;;;;;;4143396;28;21184;-71
2022/10/05 03:18:11;;;;;;;4.53;3.60;;;19.20;99.90;;;;;;4141837;28;20667;-71
2022/10/05 03:20:26;;;;;;;3.78;3.38;;;19.10;99.90;;;;;;4141807;28;20579;-71
2022/10/05 03:22:36;;;;;;;4.00;3.70;;;19.20;99.90;;;;;;4142284;28;20221;-73
2022/10/05 03:24:49;;;;;;;4.35;3.95;;;19.10;99.90;;;;;;4141920;28;20244;-74
2022/10/05 03:26:59;;;;;;;4.43;3.90;;;19.20;99.90;;;;;;4145532;28;20670;-73
2022/10/05 03:29:06;;;;;;;4.40;4.00;;;19.10;99.90;;;;;;4142656;28;20674;-74
2022/10/05 03:31:18;;;;;;;4.43;4.00;;;19.10;99.90;;;;;;4143043;28;20220;-73
2022/10/05 03:33:29;;;;;;;4.35;3.95;;;19.10;99.90;;;;;;4143454;28;20303;-73
2022/10/05 03:35:35;;;;;;;4.10;3.70;;;19.10;99.90;;;;;;4142655;28;20748;-74
2022/10/05 03:37:47;;;;;;;4.35;3.80;;;19.20;99.90;;;;;;4144058;28;20217;-74
2022/10/05 03:39:55;;;;;;;4.38;3.97;;;19.10;99.90;;;;;;4143281;28;20275;-74
2022/10/05 03:42:04;;;;;;;4.25;3.80;;;19.20;99.90;;;;;;4143603;28;20271;-74
2022/10/05 03:44:31;;;;;;;4.05;3.65;;;19.10;99.90;;;;;;4142415;28;20221;-73
2022/10/05 03:46:44;;;;;;;3.88;3.42;;;19.10;99.90;;;;;;4141926;28;20221;-74
2022/10/05 03:48:58;;;;;;;4.78;3.70;;;19.20;99.90;;;;;;4146050;28;20216;-73
2022/10/05 03:51:07;;;;;;;4.10;3.70;;;19.20;99.90;;;;;;4145991;28;20259;-74
2022/10/05 03:53:16;;;;;;;4.18;3.58;;;19.20;99.90;;;;;;4146198;28;20237;-74
2022/10/05 03:55:25;;;;;;;3.53;3.22;;;19.20;99.90;;;;;;4146857;28;20279;-74
2022/10/05 03:57:31;;;;;;;3.80;3.35;;;19.10;99.90;;;;;;4146217;28;20232;-73
2022/10/05 03:59:40;;;;;;;4.03;3.65;;;19.20;99.90;;;;;;4147495;28;20295;-73
2022/10/05 04:01:47;;;;;;;4.20;3.80;;;19.10;99.90;;;;;;4146957;28;20620;-73
2022/10/05 04:03:56;;;;;;;3.60;3.30;;;19.10;99.90;;;;;;4144745;28;20213;-74
2022/10/05 04:06:03;;;;;;;3.67;3.38;;;19.10;99.90;;;;;;4146265;28;20212;-73
2022/10/05 04:08:09;;;;;;;4.72;3.78;;;19.10;99.90;;;;;;4146893;28;20210;-73
2022/10/05 04:10:17;;;;;;;3.83;3.45;;;19.20;99.90;;;;;;4141790;28;20255;-73
2022/10/05 04:12:25;;;;;;;4.28;3.45;;;19.10;99.90;;;;;;4145537;28;20212;-73
2022/10/05 04:14:33;;;;;;;3.50;3.20;;;19.10;99.90;;;;;;4146515;28;20228;-74
2022/10/05 04:16:41;;;;;;;4.78;4.03;;;19.10;99.90;;;;;;4145950;28;20236;-74
2022/10/05 04:18:46;;;;;;;4.13;3.47;;;19.10;99.90;;;;;;4145268;28;20669;-74
2022/10/05 04:20:55;;;;;;;3.83;3.45;;;19.20;99.90;;;;;;4144131;28;20246;-73
2022/10/05 04:23:04;;;;;;;3.83;3.50;;;19.10;99.90;;;;;;4144518;28;20319;-74
2022/10/05 04:25:15;;;;;;;4.00;3.60;;;19.10;99.90;;;;;;4142256;28;20220;-73
2022/10/05 04:27:20;;;;;;;4.97;4.03;;;19.10;99.90;;;;;;4144338;28;20217;-74
2022/10/05 04:29:30;;;;;;;3.90;3.60;;;19.10;99.90;;;;;;4145021;28;20224;-73
2022/10/05 04:31:49;;;;;;;3.65;3.35;;;19.10;99.90;;;;;;4145659;28;20220;-73
2022/10/05 04:34:03;;;;;;;4.18;3.78;;;19.10;99.90;;;;;;4144718;28;20251;-73
2022/10/05 04:36:19;;;;;;;3.50;3.20;;;19.20;99.90;;;;;;4145438;28;20239;-73
2022/10/05 04:38:31;;;;;;;3.60;3.30;;;19.10;99.90;;;;;;4143041;28;21003;-73
2022/10/05 04:40:43;;;;;;;3.80;3.50;;;19.10;99.90;;;;;;4145553;28;20275;-74
2022/10/05 04:42:54;;;;;;;4.30;3.58;;;19.10;99.90;;;;;;4145623;28;20661;-73
2022/10/05 04:45:09;;;;;;;3.72;3.42;;;19.10;99.90;;;;;;4144623;28;20298;-73
2022/10/05 04:47:30;;;;;;;4.00;3.60;;;19.10;99.90;;;;;;4147839;28;20215;-74
2022/10/05 04:49:52;;;;;;;4.07;3.53;;;19.10;99.90;;;;;;4145684;28;20295;-73
2022/10/05 04:52:05;;;;;;;4.07;3.60;;;19.10;99.90;;;;;;4144291;28;20311;-74
2022/10/05 04:54:19;;;;;;;3.40;3.10;;;19.10;99.90;;;;;;4147380;28;20285;-73
2022/10/05 04:56:29;;;;;;;4.22;3.50;;;19.20;99.90;;;;;;4144913;28;20271;-73
2022/10/05 04:58:42;;;;;;;4.25;3.80;;;19.10;99.90;;;;;;4141335;28;20237;-74
2022/10/05 05:00:54;;;;;;;3.90;3.22;;;19.10;99.90;;;;;;4145410;28;20271;-73
2022/10/05 05:03:15;;;;;;;3.80;3.40;;;19.10;99.90;;;;;;4146106;28;20670;-73
2022/10/05 05:05:38;;;;;;;4.10;3.67;;;19.10;99.90;;;;;;4144902;28;20271;-74
2022/10/05 05:07:49;;;;;;;3.28;2.97;;;19.10;99.90;;;;;;4143221;28;20630;-74
2022/10/05 05:10:21;;;;;;;3.83;3.47;;;19.20;99.90;;;;;;4144966;28;20625;-74
2022/10/05 05:12:34;;;;;;;3.58;3.28;;;19.10;99.90;;;;;;4145241;28;20217;-74
2022/10/05 05:14:55;;;;;;;3.90;3.50;;;19.10;99.90;;;;;;4145462;28;20221;-74
2022/10/05 05:17:11;;;;;;;4.03;3.17;;;19.10;99.90;;;;;;4140764;28;20225;-74
2022/10/05 05:19:33;;;;;;;4.30;3.70;;;19.10;99.90;;;;;;4141693;28;20237;-73
2022/10/05 05:21:42;;;;;;;3.10;2.80;;;19.10;99.90;;;;;;4142886;28;20233;-73
2022/10/05 05:23:57;;;;;;;3.72;3.42;;;19.10;99.90;;;;;;4143681;28;20244;-74
2022/10/05 05:26:10;;;;;;;3.88;3.42;;;19.10;99.90;;;;;;4142511;28;20213;-74
2022/10/05 05:28:25;;;;;;;4.35;3.45;;;19.10;99.90;;;;;;4145014;28;20225;-73
2022/10/05 05:30:37;;;;;;;3.20;2.90;;;19.10;99.90;;;;;;4142496;28;20228;-73
2022/10/05 05:32:48;;;;;;;3.60;3.30;;;19.10;99.90;;;;;;4145400;28;20275;-73
2022/10/05 05:35:06;;;;;;;3.63;3.33;;;19.00;99.90;;;;;;4144848;28;20260;-73
2022/10/05 05:37:18;;;;;;;3.17;2.88;;;19.10;99.90;;;;;;4123773;28;20229;-73
2022/10/05 05:39:26;;;;;;;3.28;2.95;;;19.10;99.90;;;;;;4144882;28;20245;-74
2022/10/05 05:41:37;;;;;;;3.45;3.15;;;19.10;99.90;;;;;;4144541;28;20271;-73
2022/10/05 05:43:56;;;;;;;3.40;3.10;;;19.10;99.90;;;;;;4141345;28;20299;-74
2022/10/05 05:46:00;;;;;;;3.88;3.47;;;19.20;99.90;;;;;;4141387;28;20236;-73
2022/10/05 05:48:13;;;;;;;3.70;3.30;;;19.10;99.90;;;;;;4139465;28;20694;-74
2022/10/05 05:50:31;;;;;;;3.75;3.38;;;19.10;99.90;;;;;;4140596;28;20205;-74
2022/10/05 05:52:40;;;;;;;3.38;3.08;;;19.10;99.90;;;;;;4143174;28;20342;-74
2022/10/05 05:54:49;;;;;;;3.72;3.03;;;19.10;99.90;;;;;;4143107;28;20217;-73
2022/10/05 05:56:57;;;;;;;3.78;3.42;;;19.10;99.90;;;;;;4137297;28;20221;-73
2022/10/05 05:59:05;;;;;;;3.45;3.15;;;19.10;99.90;;;;;;4143789;28;20217;-73
2022/10/05 06:01:12;;;;;;;4.32;3.47;;;19.10;99.90;;;;;;4144410;28;20666;-73
2022/10/05 06:03:21;;;;;;;3.88;3.45;;;19.10;99.90;;;;;;4141078;28;20225;-74
2022/10/05 06:05:31;;;;;;;3.28;2.97;;;19.10;99.90;;;;;;4143899;28;20220;-73
2022/10/05 06:07:37;;;;;;;3.50;3.20;;;19.10;99.90;;;;;;4141383;28;20259;-73
2022/10/05 06:09:46;;;;;;;3.38;3.08;;;19.10;99.90;;;;;;4137626;28;20659;-73
2022/10/05 06:11:52;;;;;;;3.35;3.05;;;19.20;99.90;;;;;;4136064;28;20213;-73
2022/10/05 06:13:59;;;;;;;3.92;3.28;;;19.10;99.90;;;;;;4138638;28;20259;-73
2022/10/05 06:16:09;;;;;;;3.72;3.30;;;19.20;99.90;;;;;;4142753;28;20213;-74
2022/10/05 06:18:15;;;;;;;3.42;3.13;;;19.20;99.90;;;;;;4144674;28;20744;-73
2022/10/05 06:20:25;;;;;;;3.20;2.90;;;19.20;99.90;;;;;;4140556;28;20237;-74
2022/10/05 06:22:34;;;;;;;3.15;2.85;;;19.20;99.90;;;;;;4140454;28;21033;-74
2022/10/05 06:24:43;;;;;;;3.70;3.30;;;19.10;99.90;;;;;;4140753;28;20217;-73
2022/10/05 06:27:11;;;;;;;3.40;3.10;;;19.20;99.90;;;;;;4145054;28;20228;-73
2022/10/05 06:29:19;;;;;;;3.50;3.20;;;19.20;99.90;;;;;;4144597;28;20670;-73
2022/10/05 06:31:45;;;;;;;3.35;3.03;;;19.20;99.90;;;;;;4136944;28;20626;-73
2022/10/05 06:33:50;;;;;;;4.05;3.15;;;19.20;99.90;;;;;;4142735;28;20213;-73
2022/10/05 06:36:06;;;;;;;3.70;3.28;;;19.20;99.90;;;;;;4141335;28;20611;-73
2022/10/05 06:38:27;;;;;;;3.30;3.00;;;19.20;99.90;;;;;;4134960;28;20256;-74
2022/10/05 06:40:41;;;;;;;3.55;3.08;;;19.20;99.90;;;;;;4144024;28;20331;-74
2022/10/05 06:43:13;;;;;;;3.35;3.00;;;19.20;99.90;;;;;;4140213;28;20777;-74
2022/10/05 06:45:22;;;;;;;3.40;3.10;;;19.20;99.90;;;;;;4136683;28;20666;-74
2022/10/05 06:47:32;;;;;;;3.85;3.00;;;19.20;99.90;;;;;;4142047;28;20251;-74
2022/10/05 06:49:42;;;;;;;3.38;2.72;;;19.20;99.90;;;;;;4141924;28;21597;-74
2022/10/05 06:51:51;;;;;;;3.53;3.20;;;19.20;99.90;;;;;;4141785;28;20736;-74
2022/10/05 06:54:03;;;;;;;3.55;3.25;;;19.20;99.90;;;;;;4135555;28;20708;-75
2022/10/05 06:56:09;;;;;;;5.63;3.15;;;19.20;99.90;;;;;;4136036;28;20222;-75
2022/10/05 06:58:35;;;;;;;3.40;3.10;;;19.30;99.90;;;;;;4143489;28;20213;-75
2022/10/05 07:00:44;;;;;;;3.50;3.05;;;19.20;99.90;;;;;;4130106;28;20229;-75
2022/10/05 07:02:54;;;;;;;3.05;2.80;;;19.30;99.90;;;;;;4136055;28;20224;-74
2022/10/05 07:05:29;;;;;;;3.80;2.97;;;19.30;99.90;;;;;;4134482;28;20217;-75
2022/10/05 07:07:40;;;;;;;3.30;3.00;;;19.30;99.90;;;;;;4135779;28;20213;-74
2022/10/05 07:09:52;;;;;;;3.60;3.05;;;19.40;99.90;;;;;;4139516;28;20909;-75
2022/10/05 07:12:17;;;;;;;2.67;2.47;;;19.40;99.90;;;;;;4132678;28;20225;-75
2022/10/05 07:14:36;;;;;;;4.07;3.03;;;19.40;99.90;;;;;;4131047;28;20256;-75
2022/10/05 07:16:49;;;;;;;3.13;2.83;;;19.50;99.90;;;;;;4135693;28;20216;-75
2022/10/05 07:19:05;;;;;;;11.32;3.40;;;19.50;99.90;;;;;;4138170;28;20271;-75
2022/10/05 07:21:18;;;;;;;3.20;2.70;;;19.50;99.90;;;;;;4146037;28;20739;-75
2022/10/05 07:23:34;;;;;;;3.28;2.70;;;19.50;99.90;;;;;;4145156;28;20318;-75
2022/10/05 07:25:42;;;;;;;3.13;2.60;;;19.50;99.90;;;;;;4146410;28;20221;-74
2022/10/05 07:27:53;;;;;;;4.50;2.75;;;19.50;99.90;;;;;;4130614;28;20221;-76
2022/10/05 07:30:02;;;;;;;3.15;2.85;;;19.60;99.90;;;;;;4146217;28;20209;-74
2022/10/05 07:32:14;;;;;;;5.40;2.65;;;19.60;99.90;;;;;;4141696;28;20216;-75
2022/10/05 07:34:25;;;;;;;4.25;2.72;;;19.60;99.90;;;;;;4144536;28;20226;-74
2022/10/05 07:39:18;;;;;;;3.30;2.67;;;19.60;99.90;;;;;;4096072;28;20203;-74
2022/10/05 07:41:31;;;;;;;3.20;2.50;;;19.70;99.90;;;;;;4096624;28;20234;-74
2022/10/05 07:43:41;;;;;;;3.72;2.90;;;19.60;99.90;;;;;;4102974;28;20218;-75
2022/10/05 07:45:51;;;;;;;4.13;2.58;;;19.70;99.90;;;;;;4148409;28;20662;-74
2022/10/05 07:47:55;;;;;;;3.78;2.78;;;19.80;99.90;;;;;;4145514;28;20214;-74
2022/10/05 07:50:02;;;;;;;3.08;2.47;;;19.70;99.90;;;;;;4134232;28;20221;-73
2022/10/05 07:52:10;;;;;;;4.15;2.60;;;19.70;99.90;;;;;;4141729;28;20304;-74
2022/10/05 07:54:20;;;;;;;2.85;2.55;;;19.70;99.90;;;;;;4148832;28;20270;-74
2022/10/05 07:56:29;;;;;;;2.72;2.47;;;19.80;99.90;;;;;;4142450;28;20255;-77
2022/10/05 07:58:40;;;;;;;5.60;2.78;;;19.80;99.90;;;;;;4134889;28;20670;-74
2022/10/05 08:01:05;;;;;;;4.18;2.70;;;19.80;99.90;;;;;;4143402;28;20244;-73
2022/10/05 08:03:13;;;;;;;3.30;3.00;;;19.80;99.90;;;;;;4137593;28;20247;-75
2022/10/05 08:05:22;;;;;;;5.88;2.60;;;19.80;99.90;;;;;;4143210;28;20216;-74
2022/10/05 08:07:25;;;;;;;4.22;2.53;;;19.90;99.90;;;;;;4146206;28;20359;-74
2022/10/05 08:09:38;;;;;;;7.28;2.88;;;19.90;99.90;;;;;;4135375;28;20280;-73
2022/10/05 08:11:48;;;;;;;4.05;2.45;;;19.90;99.90;;;;;;4139585;28;20214;-72
2022/10/05 08:13:54;;;;;;;3.90;2.40;;;20.00;99.90;;;;;;4135596;28;20282;-74
2022/10/05 08:16:03;;;;;;;4.82;2.75;;;19.90;99.90;;;;;;4147354;28;20209;-73
2022/10/05 08:18:14;;;;;;;4.90;2.88;;;19.90;99.90;;;;;;4138865;28;20222;-73
2022/10/05 08:20:29;;;;;;;3.28;2.72;;;19.90;99.90;;;;;;4135563;28;20225;-72
2022/10/05 08:22:40;;;;;;;5.50;2.80;;;19.90;99.90;;;;;;4137763;28;20213;-73
2022/10/05 08:24:51;;;;;;;3.08;2.65;;;19.90;99.90;;;;;;4145508;28;20217;-73
2022/10/05 08:27:02;;;;;;;3.03;2.72;;;19.90;99.90;;;;;;4145712;28;20217;-73
2022/10/05 08:29:15;;;;;;;4.97;2.47;;;20.00;99.90;;;;;;4140530;28;20271;-72
2022/10/05 08:31:25;;;;;;;7.68;2.72;;;20.00;99.90;;;;;;4145566;28;20212;-74
2022/10/05 08:33:32;;;;;;;6.10;2.58;;;20.00;99.90;;;;;;4146553;28;20225;-72
2022/10/05 08:35:39;;;;;;;3.78;2.60;;;20.00;99.90;;;;;;4141850;28;20225;-72
2022/10/05 08:37:46;;;;;;;5.75;2.75;;;20.10;99.90;;;;;;4140977;28;20299;-74
2022/10/05 08:39:54;;;;;;;4.35;3.00;;;20.10;99.90;;;;;;4132723;28;20213;-72
2022/10/05 08:42:18;;;;;;;6.05;2.40;;;20.10;99.90;;;;;;4144922;28;20287;-72
2022/10/05 08:45:11;;;;;;;3.10;2.72;;;20.10;99.90;;;;;;4138413;28;20269;-73
2022/10/05 08:47:26;;;;;;;2.75;2.40;;;20.00;99.90;;;;;;4143532;28;20256;-74
2022/10/05 08:50:01;;;;;;;5.15;2.90;;;20.00;99.90;;;;;;4128763;28;20627;-74
2022/10/05 08:52:24;;;;;;;4.15;2.65;;;20.00;99.90;;;;;;4131854;28;20247;-73
2022/10/05 08:54:46;;;;;;;4.90;2.63;;;20.00;99.90;;;;;;4140004;28;20217;-74
2022/10/05 08:57:02;;;;;;;3.70;2.58;;;20.00;99.90;;;;;;4144795;28;20229;-75
2022/10/05 08:59:21;;;;;;;3.60;2.15;;;20.00;99.90;;;;;;4144706;28;20213;-75
2022/10/05 09:01:39;;;;;;;5.15;2.60;;;20.00;99.90;;;;;;4131382;28;20233;-74
2022/10/05 09:04:31;;;;;;;3.95;2.85;;;20.00;99.90;;;;;;4137063;28;20267;-74
2022/10/05 09:07:02;;;;;;;3.58;2.55;;;20.10;99.90;;;;;;4135841;28;20221;-75
2022/10/05 09:09:25;;;;;;;2.67;2.42;;;20.10;99.90;;;;;;4140051;28;20249;-75
2022/10/05 09:11:35;;;;;;;2.67;2.30;;;20.20;99.90;;;;;;4137594;28;20251;-73
2022/10/05 09:14:01;;;;;;;4.95;2.60;;;20.10;99.90;;;;;;4136828;28;20217;-73
2022/10/05 09:16:31;;;;;;;2.50;2.30;;;20.10;99.90;;;;;;4147511;28;20217;-74
2022/10/05 09:19:14;;;;;;;3.88;2.20;;;20.20;99.90;;;;;;4146857;28;20201;-73
2022/10/05 09:21:39;;;;;;;3.42;2.28;;;20.30;99.90;;;;;;4137478;28;20228;-74
2022/10/05 09:23:43;;;;;;;3.90;2.58;;;20.30;99.90;;;;;;4143895;28;20213;-73
2022/10/05 09:26:00;;;;;;;2.67;2.15;;;20.30;99.90;;;;;;4143119;28;20275;-74
2022/10/05 09:28:17;;;;;;;3.42;2.45;;;20.20;99.90;;;;;;4135500;28;20539;-73
2022/10/05 09:30:41;;;;;;;2.47;2.15;;;20.30;99.90;;;;;;4132199;28;20214;-73
2022/10/05 09:33:24;;;;;;;3.75;2.30;;;20.30;99.90;;;;;;4139324;28;20217;-73
2022/10/05 09:35:56;;;;;;;3.65;2.47;;;20.30;99.90;;;;;;4135343;28;20271;-74
2022/10/05 09:38:24;;;;;;;5.28;2.65;;;20.20;99.90;;;;;;4138127;28;20267;-73
2022/10/05 09:41:12;;;;;;;7.15;2.70;;;20.20;99.90;;;;;;4139253;28;20217;-73
2022/10/05 09:43:39;;;;;;;4.47;2.70;;;20.30;99.90;;;;;;4126699;28;20260;-72
2022/10/05 09:46:00;;;;;;;3.08;2.65;;;20.20;99.90;;;;;;4136110;28;20249;-73
2022/10/05 09:48:41;;;;;;;4.80;2.50;;;20.10;99.90;;;;;;4133994;28;20288;-72
2022/10/05 09:51:11;;;;;;;6.82;2.78;;;20.10;99.90;;;;;;4130966;28;20926;-72
2022/10/05 09:53:53;;;;;;;7.28;3.03;;;20.00;99.90;;;;;;4124655;28;20534;-72
2022/10/05 09:56:23;;;;;;;5.00;2.90;;;20.00;99.90;;;;;;4130497;28;20289;-74
2022/10/05 09:59:05;;;;;;;5.25;2.67;;;20.10;99.90;;;;;;4135121;28;20220;-73
2022/10/05 10:01:26;;;;;;;7.38;2.97;;;20.10;99.90;;;;;;4133777;28;20322;-73
2022/10/05 10:03:59;;;;;;;5.20;2.60;;;20.20;99.90;;;;;;4145515;28;20217;-73
2022/10/05 10:06:35;;;;;;;5.00;2.97;;;20.20;99.90;;;;;;4139596;28;20222;-72
2022/10/05 10:08:49;;;;;;;6.65;2.80;;;20.30;99.90;;;;;;4141114;28;20224;-72
2022/10/05 10:11:20;;;;;;;4.15;2.58;;;20.40;99.90;;;;;;4138828;28;20287;-72
2022/10/05 10:13:55;;;;;;;4.80;2.47;;;20.40;99.90;;;;;;4140536;28;20729;-73
2022/10/05 10:16:26;;;;;;;3.10;2.58;;;20.30;99.90;;;;;;4130271;28;20290;-73
2022/10/05 10:18:44;;;;;;;4.55;2.70;;;20.30;99.90;;;;;;4132760;28;20225;-73
2022/10/05 10:21:00;;;;;;;4.13;3.00;;;20.30;99.90;;;;;;4141975;28;20217;-73
2022/10/05 10:23:23;;;;;;;4.78;2.67;;;20.30;99.90;;;;;;4142983;28;20345;-73
2022/10/05 10:25:54;;;;;;;5.65;2.65;;;20.40;99.90;;;;;;4145144;28;20279;-73
2022/10/05 10:28:18;;;;;;;4.75;2.75;;;20.30;99.90;;;;;;4141240;28;20221;-72
2022/10/05 10:30:44;;;;;;;3.95;2.80;;;20.30;99.90;;;;;;4141996;28;20221;-73
2022/10/05 10:33:12;;;;;;;3.75;2.85;;;20.40;99.90;;;;;;4132928;28;20272;-72
2022/10/05 10:35:22;;;;;;;4.90;2.70;;;20.40;99.90;;;;;;4144613;28;20239;-72
2022/10/05 10:37:56;;;;;;;4.60;2.80;;;20.30;99.90;;;;;;4140383;28;20225;-72
2022/10/05 10:40:22;;;;;;;3.53;2.53;;;20.40;99.90;;;;;;4141335;28;20222;-72
2022/10/05 10:42:37;;;;;;;4.85;2.65;;;20.40;99.90;;;;;;4141957;28;20244;-73
2022/10/05 10:45:13;;;;;;;4.65;3.30;;;20.40;99.90;;;;;;4143714;28;20259;-73
2022/10/05 10:47:39;;;;;;;4.68;2.85;;;20.40;99.90;;;;;;4141648;28;20220;-70
2022/10/05 10:50:07;;;;;;;3.50;2.60;;;20.40;99.90;;;;;;4139081;28;20217;-72
2022/10/05 10:52:30;;;;;;;3.60;2.95;;;20.50;99.90;;;;;;4141123;28;20274;-71
2022/10/05 10:54:59;;;;;;;4.85;2.90;;;20.40;99.90;;;;;;4138457;28;20618;-72
2022/10/05 10:57:06;;;;;;;5.93;2.80;;;20.50;99.90;;;;;;4142702;28;20217;-73
2022/10/05 10:59:43;;;;;;;5.18;2.83;;;20.50;99.90;;;;;;4141169;28;20359;-72
2022/10/05 11:02:01;;;;;;;4.35;3.25;;;20.60;99.90;;;;;;4142660;28;21044;-72
2022/10/05 11:04:54;;;;;;;5.13;3.30;;;20.50;99.90;;;;;;4140545;28;20259;-73
2022/10/05 11:07:37;;;;;;;3.53;2.80;;;20.50;99.90;;;;;;4146629;28;20306;-72
2022/10/05 11:10:12;;;;;;;3.80;2.60;;;20.50;99.90;;;;;;4139338;28;20208;-72
2022/10/05 11:12:47;;;;;;;6.20;3.22;;;20.60;99.90;;;;;;4144312;28;20216;-72
2022/10/05 11:15:20;;;;;;;4.65;3.03;;;20.50;99.90;;;;;;4146193;28;20681;-72
2022/10/05 11:17:39;;;;;;;7.10;3.13;;;20.50;99.90;;;;;;4124325;28;20260;-71
2022/10/05 11:20:02;;;;;;;6.45;3.00;;;20.60;99.90;;;;;;4146572;28;20209;-71
2022/10/05 11:22:27;;;;;;;4.75;2.95;;;20.60;99.90;;;;;;4142999;28;20245;-72
2022/10/05 11:24:58;;;;;;;5.50;3.15;;;20.70;99.90;;;;;;4143492;28;20221;-70
2022/10/05 11:27:20;;;;;;;11.48;3.08;;;20.60;99.90;;;;;;4147045;28;20275;-71
2022/10/05 11:29:46;;;;;;;8.65;2.90;;;20.50;99.90;;;;;;4144353;28;20625;-71
2022/10/05 11:32:11;;;;;;;3.47;2.83;;;20.40;99.90;;;;;;4132498;28;20210;-73
2022/10/05 11:34:37;;;;;;;4.32;2.60;;;20.50;99.90;;;;;;4141465;28;20295;-73
2022/10/05 11:37:21;;;;;;;5.00;3.00;;;20.60;99.90;;;;;;4144508;28;20264;-74
2022/10/05 11:39:37;;;;;;;5.57;2.75;;;20.60;99.90;;;;;;4075060;28;20268;-74
2022/10/05 11:42:08;;;;;;;5.78;3.00;;;20.60;99.90;;;;;;4144332;28;20973;-73
2022/10/05 11:44:47;;;;;;;7.30;3.20;;;20.60;99.90;;;;;;4136182;28;20267;-73
2022/10/05 11:46:59;;;;;;;7.35;2.85;;;20.60;99.90;;;;;;4142194;28;20221;-74